Logan Cache Airport Logan US
ICAO: KLGU
IATA: LGU
Category: Medium
Scheduled Services: No

Elevation: 4457 ft
TransAlt. 18000 ft.

Airport Communications:
ASOS:135.275
CEDAR CITY RDO:122.2
CTAF/UNICOM:122.8

KLGU Zoom In..

If you have problems with the map follow the link
https://www.worldairports.se/pages/airport.php?
ICAO=KLGU

Runways:

(A) RW 10 length 5005 ft width 75 ft
---- / hdg 108

(B) RW 17 length 9010 ft width 100 ft
ILS 109.15 / hdg 169

(C) RW 28 length 5005 ft width 75 ft
---- / hdg 288

(D) RW 35 length 9010 ft width 100 ft
---- / hdg 349

Location; KLGU
Day. 07 / Time. 09.51 Zulu
* Altimeter: 30.14
* Temperature: -02° c. -28.4°f.
* Wind from: 040° Speed 05 kn.
Dewpoint: -04° c.
Visibility: 1/4 Statute Miles.
Conditions: Freezing fog.

KLGU 070951Z AUTO 04005KT 1/4SM FZFG VV002 M02/M04 A3014 RMK AO2 SLP224 I1001 T10221039


Wind From 040°
Speed 05 kn.

 
 
jpsmedia worldairports.se 2019   terms of use